createdAt,value
2023-01-29T00:02:05.929Z,99445.03
2023-01-29T00:04:33.122Z,99446.53
2023-01-29T00:07:02.452Z,99444.66
2023-01-29T00:09:29.500Z,99439.94
2023-01-29T00:11:57.052Z,99444.22
2023-01-29T00:14:24.275Z,99442.31
2023-01-29T00:16:51.322Z,99441.59
2023-01-29T00:19:18.366Z,99447.06
2023-01-29T00:21:47.558Z,99446.75
2023-01-29T00:24:14.614Z,99444.94
2023-01-29T00:26:42.754Z,99438.94
2023-01-29T00:29:09.822Z,99438.09
2023-01-29T00:31:36.980Z,99427.41
2023-01-29T00:34:04.180Z,99436.00
2023-01-29T00:36:31.083Z,99429.31
2023-01-29T00:38:59.985Z,99429.31
2023-01-29T00:41:46.568Z,99424.16
2023-01-29T00:44:32.122Z,99414.28
2023-01-29T00:46:59.854Z,99420.41
2023-01-29T00:49:27.014Z,99412.91
2023-01-29T00:52:12.878Z,99416.59
2023-01-29T00:54:39.838Z,99401.69
2023-01-29T00:57:06.843Z,99407.25
2023-01-29T00:59:33.845Z,99412.31
2023-01-29T01:02:19.438Z,99403.56
2023-01-29T01:04:46.623Z,99405.88
2023-01-29T01:09:58.196Z,99413.53
2023-01-29T01:12:25.182Z,99408.28
2023-01-29T01:14:52.156Z,99405.03
2023-01-29T01:17:19.132Z,99410.91
2023-01-29T01:19:46.266Z,99404.94
2023-01-29T01:22:13.366Z,99406.72
2023-01-29T01:24:40.345Z,99401.75
2023-01-29T01:27:07.693Z,99409.09
2023-01-29T01:29:34.707Z,99408.03
2023-01-29T01:32:01.731Z,99412.75
2023-01-29T01:34:28.903Z,99411.81
2023-01-29T01:36:59.124Z,99407.38
2023-01-29T01:39:26.137Z,99403.38
2023-01-29T01:41:53.884Z,99406.75
2023-01-29T01:44:39.669Z,99400.88
2023-01-29T01:47:06.687Z,99403.44
2023-01-29T01:49:33.778Z,99414.72
2023-01-29T01:52:01.278Z,99403.19
2023-01-29T01:54:30.594Z,99408.63
2023-01-29T01:57:16.278Z,99399.69
2023-01-29T01:59:46.865Z,99407.06
2023-01-29T02:02:33.204Z,99392.97
2023-01-29T02:05:18.725Z,99400.63
2023-01-29T02:08:06.235Z,99400.84
2023-01-29T02:10:38.290Z,99389.69
2023-01-29T02:13:06.948Z,99394.47
2023-01-29T02:15:34.296Z,99387.78
2023-01-29T02:18:02.625Z,99380.41
2023-01-29T02:20:32.310Z,99369.13
2023-01-29T02:23:17.266Z,99369.50
2023-01-29T02:26:09.876Z,99371.94
2023-01-29T02:28:36.885Z,99370.22
2023-01-29T02:31:05.613Z,99366.69
2023-01-29T02:33:32.666Z,99357.34
2023-01-29T02:36:05.005Z,99358.28
2023-01-29T02:38:35.430Z,99350.19
2023-01-29T02:41:06.312Z,99346.63
2023-01-29T02:43:38.812Z,99341.94
2023-01-29T02:46:06.004Z,99345.31
2023-01-29T02:48:41.605Z,99336.50
2023-01-29T02:51:18.616Z,99332.94
2023-01-29T02:53:45.675Z,99338.94
2023-01-29T02:56:17.996Z,99330.94
2023-01-29T02:58:49.315Z,99320.56
2023-01-29T03:01:20.238Z,99320.34
2023-01-29T03:03:53.352Z,99316.91
2023-01-29T03:06:22.497Z,99308.72
2023-01-29T03:09:00.854Z,99316.00
2023-01-29T03:11:30.374Z,99314.84
2023-01-29T03:14:00.162Z,99306.78
2023-01-29T03:16:39.659Z,99301.31
2023-01-29T03:19:11.256Z,99304.28
2023-01-29T03:21:59.834Z,99298.09
2023-01-29T03:25:11.162Z,99292.00
2023-01-29T03:28:11.966Z,99281.94
2023-01-29T03:31:10.127Z,99288.00
2023-01-29T03:33:45.505Z,99288.19
2023-01-29T03:36:19.279Z,99279.38
2023-01-29T03:38:46.538Z,99275.50
2023-01-29T03:41:23.396Z,99265.31
2023-01-29T03:44:03.772Z,99266.16
2023-01-29T03:46:41.514Z,99260.72
2023-01-29T03:49:30.612Z,99248.00
2023-01-29T03:52:04.988Z,99260.09
2023-01-29T03:54:31.963Z,99245.91
2023-01-29T03:57:15.685Z,99237.09
2023-01-29T03:59:55.597Z,99242.25
2023-01-29T04:02:46.845Z,99241.50
2023-01-29T04:05:19.269Z,99234.06
2023-01-29T04:08:05.081Z,99226.38
2023-01-29T04:10:36.077Z,99225.47
2023-01-29T04:13:06.783Z,99220.72
2023-01-29T04:15:37.342Z,99223.34
2023-01-29T04:18:05.386Z,99221.44
2023-01-29T04:20:56.014Z,99209.41
2023-01-29T04:23:24.612Z,99204.56
2023-01-29T04:26:12.520Z,99208.88
2023-01-29T04:28:51.329Z,99212.78
2023-01-29T04:31:23.361Z,99214.44
2023-01-29T04:34:10.020Z,99208.34
2023-01-29T04:36:42.130Z,99205.22
2023-01-29T04:39:29.359Z,99209.19
2023-01-29T04:42:05.316Z,99207.59
2023-01-29T04:44:51.144Z,99204.38
2023-01-29T04:47:30.623Z,99203.50
2023-01-29T04:50:20.006Z,99192.41
2023-01-29T04:52:59.576Z,99197.75
2023-01-29T04:55:37.201Z,99193.03
2023-01-29T04:58:07.339Z,99196.63
2023-01-29T05:00:37.424Z,99202.78
2023-01-29T05:03:06.463Z,99201.22
2023-01-29T05:05:33.603Z,99188.94
2023-01-29T05:08:00.503Z,99190.41
2023-01-29T05:10:28.167Z,99180.22
2023-01-29T05:13:00.568Z,99179.16
2023-01-29T05:15:32.255Z,99185.28
2023-01-29T05:18:03.200Z,99188.94
2023-01-29T05:20:34.575Z,99182.97
2023-01-29T05:23:01.469Z,99186.31
2023-01-29T05:25:30.382Z,99186.19
2023-01-29T05:28:07.299Z,99188.75
2023-01-29T05:30:35.865Z,99198.28
2023-01-29T05:33:03.913Z,99188.44
2023-01-29T05:35:31.609Z,99192.41
2023-01-29T05:37:58.946Z,99186.31
2023-01-29T05:40:25.834Z,99195.97
2023-01-29T05:42:52.945Z,99186.09
2023-01-29T05:45:20.104Z,99191.03
2023-01-29T05:47:47.629Z,99189.03
2023-01-29T05:50:15.687Z,99184.63
2023-01-29T05:52:53.764Z,99185.47
2023-01-29T05:55:21.029Z,99187.78
2023-01-29T05:57:48.131Z,99189.88
2023-01-29T06:00:15.830Z,99198.91
2023-01-29T06:02:47.088Z,99184.03
2023-01-29T06:05:14.181Z,99189.66
2023-01-29T06:07:45.650Z,99193.69
2023-01-29T06:10:15.124Z,99185.88
2023-01-29T06:12:47.256Z,99194.72
2023-01-29T06:15:20.634Z,99200.38
2023-01-29T06:17:48.653Z,99193.66
2023-01-29T06:22:56.443Z,99197.00
2023-01-29T06:25:23.452Z,99197.41
2023-01-29T06:27:51.374Z,99191.75
2023-01-29T06:30:19.434Z,99188.41
2023-01-29T06:32:46.646Z,99193.03
2023-01-29T06:35:13.720Z,99182.53
2023-01-29T06:37:41.016Z,99185.69
2023-01-29T06:40:09.963Z,99176.88
2023-01-29T06:45:19.724Z,99175.41
2023-01-29T06:47:46.868Z,99171.00
2023-01-29T06:50:14.504Z,99175.28
2023-01-29T06:52:41.943Z,99173.19
2023-01-29T06:55:09.321Z,99177.28
2023-01-29T06:57:36.341Z,99173.72
2023-01-29T07:00:03.900Z,99169.19
2023-01-29T07:02:31.090Z,99164.91
2023-01-29T07:04:58.420Z,99161.13
2023-01-29T07:07:25.374Z,99152.41
2023-01-29T07:09:52.558Z,99157.78
2023-01-29T07:12:19.834Z,99144.88
2023-01-29T07:14:47.441Z,99145.28
2023-01-29T07:17:14.760Z,99129.25
2023-01-29T07:19:41.935Z,99133.84
2023-01-29T07:22:08.974Z,99149.69
2023-01-29T07:24:36.115Z,99151.47
2023-01-29T07:27:03.408Z,99145.06
2023-01-29T07:29:30.913Z,99147.38
2023-01-29T07:32:17.744Z,99146.44
2023-01-29T07:34:45.013Z,99147.88
2023-01-29T07:37:12.054Z,99144.34
2023-01-29T07:39:38.976Z,99131.75
2023-01-29T07:42:06.135Z,99143.50
2023-01-29T07:44:33.178Z,99138.59
2023-01-29T07:47:00.451Z,99139.31
2023-01-29T07:49:27.507Z,99138.34
2023-01-29T07:51:54.693Z,99145.38
2023-01-29T07:54:22.016Z,99143.72
2023-01-29T07:56:49.158Z,99141.09
2023-01-29T07:59:19.273Z,99142.56
2023-01-29T08:01:46.320Z,99134.44
2023-01-29T08:04:13.627Z,99125.09
2023-01-29T08:06:40.615Z,99115.34
2023-01-29T08:09:08.803Z,99115.03
2023-01-29T08:11:35.849Z,99114.91
2023-01-29T08:14:03.195Z,99110.81
2023-01-29T08:16:30.277Z,99110.50
2023-01-29T08:18:57.799Z,99111.97
2023-01-29T08:21:24.804Z,99106.91
2023-01-29T08:23:52.073Z,99099.09
2023-01-29T08:26:19.312Z,99100.00
2023-01-29T08:28:46.566Z,99090.22
2023-01-29T08:31:15.469Z,99082.00
2023-01-29T08:33:48.337Z,99081.16
2023-01-29T08:38:58.095Z,99080.03
2023-01-29T08:41:27.571Z,99089.50
2023-01-29T08:44:05.510Z,99088.22
2023-01-29T08:46:34.246Z,99079.03
2023-01-29T08:49:04.687Z,99084.03
2023-01-29T08:51:32.344Z,99080.25
2023-01-29T08:53:59.747Z,99088.03
2023-01-29T08:56:27.078Z,99085.00
2023-01-29T08:58:54.658Z,99085.97
2023-01-29T09:01:22.253Z,99073.28
2023-01-29T09:03:50.391Z,99073.91
2023-01-29T09:06:19.209Z,99074.00
2023-01-29T09:08:46.278Z,99072.34
2023-01-29T09:11:13.815Z,99074.28
2023-01-29T09:13:40.840Z,99071.06
2023-01-29T09:16:10.053Z,99065.94
2023-01-29T09:18:37.222Z,99059.06
2023-01-29T09:21:05.132Z,99070.06
2023-01-29T09:23:32.332Z,99069.22
2023-01-29T09:25:59.451Z,99069.13
2023-01-29T09:28:26.443Z,99063.88
2023-01-29T09:30:53.673Z,99067.78
2023-01-29T09:33:26.456Z,99070.97
2023-01-29T09:35:54.736Z,99052.81
2023-01-29T09:38:22.119Z,99043.94
2023-01-29T09:41:18.644Z,99035.78
2023-01-29T09:44:03.496Z,99036.34
2023-01-29T09:46:38.804Z,99034.59
2023-01-29T09:49:09.612Z,99019.81
2023-01-29T09:51:46.374Z,99027.97
2023-01-29T09:54:19.381Z,99017.31
2023-01-29T09:56:46.770Z,99016.84
2023-01-29T09:59:14.565Z,99022.66
2023-01-29T10:01:50.116Z,99020.69
2023-01-29T10:10:08.550Z,99011.47
2023-01-29T10:12:44.852Z,99006.34
2023-01-29T10:15:18.417Z,99001.59
2023-01-29T10:17:58.136Z,98998.47
2023-01-29T10:23:13.523Z,98988.63
2023-01-29T10:25:41.651Z,98984.81
2023-01-29T10:28:19.090Z,98974.81
2023-01-29T10:30:50.631Z,98960.59
2023-01-29T10:33:19.262Z,98956.91
2023-01-29T10:35:54.712Z,98943.44
2023-01-29T10:38:39.810Z,98940.09
2023-01-29T10:41:26.123Z,98938.53
2023-01-29T10:44:02.770Z,98928.38
2023-01-29T10:46:45.803Z,98935.81
2023-01-29T10:49:25.516Z,98920.06
2023-01-29T10:52:15.918Z,98909.75
2023-01-29T10:54:45.917Z,98907.34
2023-01-29T10:57:16.287Z,98899.75
2023-01-29T10:59:53.183Z,98906.09
2023-01-29T11:02:22.383Z,98913.34
2023-01-29T11:04:49.573Z,98911.78
2023-01-29T11:07:18.295Z,98908.31
2023-01-29T11:10:00.596Z,98904.88
2023-01-29T11:12:31.114Z,98899.59
2023-01-29T11:14:58.503Z,98897.41
2023-01-29T11:17:26.482Z,98896.34
2023-01-29T11:19:59.643Z,98888.13
2023-01-29T11:22:28.401Z,98879.91
2023-01-29T11:25:13.168Z,98884.91
2023-01-29T11:28:16.579Z,98881.56
2023-01-29T11:30:46.344Z,98880.13
2023-01-29T11:33:22.096Z,98888.00
2023-01-29T11:37:31.300Z,98880.13
2023-01-29T11:40:23.568Z,98888.97
2023-01-29T11:46:22.974Z,98871.06
2023-01-29T11:49:35.638Z,98869.88
2023-01-29T11:52:04.725Z,98872.28
2023-01-29T11:54:34.452Z,98867.13
2023-01-29T11:57:05.277Z,98867.69
2023-01-29T11:59:44.278Z,98867.47
2023-01-29T12:02:19.146Z,98867.59
2023-01-29T12:04:47.281Z,98867.13
2023-01-29T12:07:16.376Z,98865.56
2023-01-29T12:09:49.859Z,98871.06
2023-01-29T12:12:26.156Z,98864.72
2023-01-29T12:15:02.964Z,98854.59
2023-01-29T12:17:31.643Z,98852.69
2023-01-29T12:20:01.988Z,98846.94
2023-01-29T12:22:53.571Z,98852.19
2023-01-29T12:25:26.279Z,98854.59
2023-01-29T12:27:56.183Z,98844.56
2023-01-29T12:30:29.728Z,98846.59
2023-01-29T12:33:18.026Z,98838.13
2023-01-29T12:36:22.541Z,98843.97
2023-01-29T12:38:49.797Z,98849.56
2023-01-29T12:41:46.057Z,98847.78
2023-01-29T12:44:19.754Z,98854.47
2023-01-29T12:46:51.681Z,98841.34
2023-01-29T12:49:24.877Z,98844.81
2023-01-29T12:51:57.155Z,98844.31
2023-01-29T12:54:32.142Z,98839.78
2023-01-29T12:57:03.581Z,98844.53
2023-01-29T12:59:33.668Z,98842.19
2023-01-29T13:02:10.030Z,98852.66
2023-01-29T13:04:56.502Z,98848.13
2023-01-29T13:07:31.403Z,98841.16
2023-01-29T13:10:04.526Z,98849.19
2023-01-29T13:12:32.291Z,98843.09
2023-01-29T13:15:03.268Z,98853.13
2023-01-29T13:17:37.188Z,98835.47
2023-01-29T13:20:24.407Z,98837.63
2023-01-29T13:22:53.735Z,98845.97
2023-01-29T13:25:21.323Z,98838.34
2023-01-29T13:27:49.001Z,98837.97
2023-01-29T13:30:29.843Z,98830.22
2023-01-29T13:33:09.806Z,98820.31
2023-01-29T13:35:39.822Z,98825.69
2023-01-29T13:38:19.164Z,98821.00
2023-01-29T13:40:49.512Z,98821.00
2023-01-29T13:43:24.282Z,98835.91
2023-01-29T13:45:53.162Z,98827.13
2023-01-29T13:48:37.071Z,98822.09
2023-01-29T13:51:10.439Z,98822.34
2023-01-29T13:53:43.099Z,98811.38
2023-01-29T13:56:30.174Z,98803.50
2023-01-29T13:58:58.639Z,98812.56
2023-01-29T14:01:45.733Z,98807.44
2023-01-29T14:04:18.910Z,98814.97
2023-01-29T14:06:48.158Z,98809.84
2023-01-29T14:09:44.702Z,98807.78
2023-01-29T14:12:24.022Z,98806.38
2023-01-29T14:14:59.551Z,98807.31
2023-01-29T14:17:27.371Z,98816.41
2023-01-29T14:20:02.125Z,98803.00
2023-01-29T14:22:32.624Z,98794.88
2023-01-29T14:25:03.943Z,98792.72
2023-01-29T14:27:45.531Z,98782.22
2023-01-29T14:30:15.328Z,98784.25
2023-01-29T14:35:32.536Z,98791.06
2023-01-29T14:38:05.875Z,98781.06
2023-01-29T14:40:33.151Z,98786.78
2023-01-29T14:43:10.420Z,98785.59
2023-01-29T14:45:38.943Z,98783.31
2023-01-29T14:48:12.183Z,98789.16
2023-01-29T14:50:41.226Z,98788.66
2023-01-29T14:53:15.078Z,98785.34
2023-01-29T14:55:42.305Z,98783.78
2023-01-29T14:58:28.359Z,98785.34
2023-01-29T15:00:57.261Z,98782.34
2023-01-29T15:03:31.977Z,98774.47
2023-01-29T15:06:01.455Z,98776.75
2023-01-29T15:08:39.234Z,98779.59
2023-01-29T15:11:36.748Z,98776.50
2023-01-29T15:14:19.149Z,98781.88
2023-01-29T15:17:17.462Z,98767.44
2023-01-29T15:19:46.001Z,98776.28
2023-01-29T15:22:15.119Z,98784.03
2023-01-29T15:24:44.259Z,98780.69
2023-01-29T15:27:17.965Z,98780.78
2023-01-29T15:29:48.699Z,98774.72
2023-01-29T15:32:27.439Z,98773.63
2023-01-29T15:34:55.551Z,98776.75
2023-01-29T15:37:30.253Z,98786.16
2023-01-29T15:40:01.376Z,98788.66
2023-01-29T15:42:30.810Z,98783.69
2023-01-29T15:44:58.172Z,98774.97
2023-01-29T15:47:32.825Z,98778.88
2023-01-29T15:50:06.654Z,98766.25
2023-01-29T15:52:37.585Z,98773.19
2023-01-29T15:55:08.901Z,98771.50
2023-01-29T15:57:45.462Z,98773.53
2023-01-29T16:00:26.744Z,98767.19
2023-01-29T16:02:56.400Z,98761.00
2023-01-29T16:05:34.721Z,98755.75
2023-01-29T16:08:04.502Z,98762.19
2023-01-29T16:10:36.959Z,98753.22
2023-01-29T16:13:10.858Z,98756.22
2023-01-29T16:16:03.997Z,98757.66
2023-01-29T16:18:59.619Z,98742.59
2023-01-29T16:21:42.436Z,98751.56
2023-01-29T16:24:23.677Z,98746.44
2023-01-29T16:27:01.228Z,98743.81
2023-01-29T16:29:44.733Z,98740.38
2023-01-29T16:32:14.368Z,98745.97
2023-01-29T16:34:43.381Z,98748.59
2023-01-29T16:37:21.671Z,98745.13
2023-01-29T16:39:53.233Z,98741.41
2023-01-29T16:42:25.417Z,98742.38
2023-01-29T16:44:58.207Z,98742.47
2023-01-29T16:47:29.841Z,98728.41
2023-01-29T16:50:04.331Z,98732.34
2023-01-29T16:52:35.474Z,98732.22
2023-01-29T16:55:13.055Z,98728.41
2023-01-29T16:57:45.003Z,98739.16
2023-01-29T17:00:20.196Z,98729.59
2023-01-29T17:02:47.684Z,98730.19
2023-01-29T17:05:21.408Z,98727.56
2023-01-29T17:07:48.787Z,98713.97
2023-01-29T17:10:20.595Z,98720.16
2023-01-29T17:12:54.915Z,98721.75
2023-01-29T17:15:31.224Z,98720.66
2023-01-29T17:17:58.233Z,98707.41
2023-01-29T17:20:26.910Z,98696.06
2023-01-29T17:22:54.174Z,98696.19
2023-01-29T17:25:24.287Z,98698.94
2023-01-29T17:27:54.352Z,98699.06
2023-01-29T17:30:23.923Z,98697.78
2023-01-29T17:32:51.012Z,98703.84
2023-01-29T17:35:18.470Z,98697.03
2023-01-29T17:37:45.798Z,98692.75
2023-01-29T17:40:17.337Z,98703.47
2023-01-29T17:42:44.472Z,98705.88
2023-01-29T17:45:11.413Z,98707.88
2023-01-29T17:47:38.539Z,98708.97
2023-01-29T17:50:40.091Z,98702.28
2023-01-29T17:53:07.118Z,98702.41
2023-01-29T17:55:34.115Z,98703.38
2023-01-29T17:58:01.190Z,98697.03
2023-01-29T18:00:28.297Z,98702.16
2023-01-29T18:02:55.299Z,98703.25
2023-01-29T18:05:22.364Z,98697.25
2023-01-29T18:07:52.942Z,98698.69
2023-01-29T18:10:20.642Z,98702.88
2023-01-29T18:12:48.066Z,98703.25
2023-01-29T18:15:15.631Z,98692.75
2023-01-29T18:17:43.527Z,98698.34
2023-01-29T18:20:16.332Z,98681.41
2023-01-29T18:22:43.471Z,98690.13
2023-01-29T18:25:10.431Z,98680.56
2023-01-29T18:27:37.388Z,98692.75
2023-01-29T18:30:05.074Z,98684.88
2023-01-29T18:32:32.121Z,98691.56
2023-01-29T18:34:59.342Z,98686.44
2023-01-29T18:37:26.419Z,98683.19
2023-01-29T18:39:53.997Z,98676.03
2023-01-29T18:42:21.023Z,98679.41
2023-01-29T18:44:48.155Z,98675.09
2023-01-29T18:47:15.218Z,98671.75
2023-01-29T18:49:42.516Z,98671.28
2023-01-29T18:52:09.646Z,98682.47
2023-01-29T18:54:36.747Z,98678.91
2023-01-29T18:57:13.053Z,98672.72
2023-01-29T18:59:41.611Z,98684.88
2023-01-29T19:02:11.978Z,98677.22
2023-01-29T19:04:39.000Z,98667.34
2023-01-29T19:07:06.305Z,98669.97
2023-01-29T19:09:33.267Z,98674.84
2023-01-29T19:12:00.416Z,98675.69
2023-01-29T19:14:27.359Z,98674.59
2023-01-29T19:16:54.443Z,98659.34
2023-01-29T19:19:21.584Z,98665.41
2023-01-29T19:21:48.886Z,98657.69
2023-01-29T19:24:16.107Z,98654.81
2023-01-29T19:26:43.103Z,98656.47
2023-01-29T19:29:10.168Z,98651.94
2023-01-29T19:31:37.232Z,98654.34
2023-01-29T19:34:04.349Z,98652.44
2023-01-29T19:36:31.728Z,98646.69
2023-01-29T19:38:58.804Z,98645.03
2023-01-29T19:41:25.786Z,98647.03
2023-01-29T19:43:54.097Z,98644.56
2023-01-29T19:46:21.107Z,98647.19
2023-01-29T19:48:51.426Z,98643.59
2023-01-29T19:51:18.860Z,98641.44
2023-01-29T19:53:45.867Z,98638.81
2023-01-29T19:56:20.187Z,98630.72
2023-01-29T19:58:47.500Z,98635.72
2023-01-29T20:01:16.405Z,98624.50
2023-01-29T20:03:46.909Z,98634.03
2023-01-29T20:06:15.641Z,98637.97
2023-01-29T20:08:45.642Z,98638.13
2023-01-29T20:11:17.231Z,98635.34
2023-01-29T20:13:46.683Z,98625.81
2023-01-29T20:16:13.778Z,98629.88
2023-01-29T20:18:41.297Z,98621.88
2023-01-29T20:21:10.384Z,98616.41
2023-01-29T20:23:40.177Z,98615.91
2023-01-29T20:26:08.498Z,98608.38
2023-01-29T20:28:36.857Z,98608.25
2023-01-29T20:31:04.297Z,98602.53
2023-01-29T20:33:32.043Z,98597.56
2023-01-29T20:36:00.215Z,98593.75
2023-01-29T20:38:31.981Z,98589.06
2023-01-29T20:41:10.005Z,98589.88
2023-01-29T20:43:37.032Z,98583.94
2023-01-29T20:46:04.382Z,98582.16
2023-01-29T20:48:32.056Z,98581.31
2023-01-29T20:51:10.058Z,98579.38
2023-01-29T20:53:37.303Z,98570.00
2023-01-29T20:56:04.833Z,98574.28
2023-01-29T20:58:32.555Z,98572.75
2023-01-29T21:00:59.963Z,98571.66
2023-01-29T21:03:29.119Z,98568.44
2023-01-29T21:05:59.317Z,98570.47
2023-01-29T21:08:26.239Z,98568.47
2023-01-29T21:10:53.801Z,98569.88
2023-01-29T21:13:20.896Z,98566.66
2023-01-29T21:15:49.397Z,98563.22
2023-01-29T21:18:16.528Z,98568.69
2023-01-29T21:20:43.493Z,98566.31
2023-01-29T21:23:10.964Z,98568.81
2023-01-29T21:25:39.003Z,98558.19
2023-01-29T21:28:06.381Z,98554.50
2023-01-29T21:30:34.044Z,98552.56
2023-01-29T21:33:01.153Z,98549.13
2023-01-29T21:35:28.521Z,98537.19
2023-01-29T21:37:55.565Z,98551.06
2023-01-29T21:40:25.319Z,98545.34
2023-01-29T21:43:10.774Z,98554.28
2023-01-29T21:45:38.578Z,98553.22
2023-01-29T21:48:05.949Z,98552.50
2023-01-29T21:50:33.020Z,98545.38
2023-01-29T21:53:00.089Z,98552.97
2023-01-29T21:55:27.059Z,98549.66
2023-01-29T21:57:54.080Z,98546.53
2023-01-29T22:00:21.098Z,98547.13
2023-01-29T22:02:50.218Z,98543.44
2023-01-29T22:05:19.832Z,98543.22
2023-01-29T22:07:55.287Z,98540.59
2023-01-29T22:10:24.841Z,98537.97
2023-01-29T22:12:53.080Z,98544.03
2023-01-29T22:15:23.617Z,98540.59
2023-01-29T22:17:51.223Z,98543.09
2023-01-29T22:20:19.204Z,98536.53
2023-01-29T22:22:46.398Z,98531.28
2023-01-29T22:25:13.368Z,98527.00
2023-01-29T22:27:40.477Z,98526.63
2023-01-29T22:30:07.851Z,98514.94
2023-01-29T22:32:35.156Z,98510.75
2023-01-29T22:35:02.147Z,98510.53
2023-01-29T22:37:30.565Z,98506.94
2023-01-29T22:39:57.562Z,98503.41
2023-01-29T22:42:25.202Z,98495.63
2023-01-29T22:44:52.173Z,98499.91
2023-01-29T22:47:20.483Z,98492.75
2023-01-29T22:49:49.427Z,98479.53
2023-01-29T22:52:16.374Z,98482.97
2023-01-29T22:54:44.893Z,98475.56
2023-01-29T22:57:12.879Z,98475.91
2023-01-29T22:59:39.898Z,98473.75
2023-01-29T23:02:07.808Z,98474.13
2023-01-29T23:04:34.872Z,98480.06
2023-01-29T23:07:01.935Z,98467.78
2023-01-29T23:09:29.102Z,98468.59
2023-01-29T23:11:56.204Z,98458.47
2023-01-29T23:14:23.123Z,98463.78
2023-01-29T23:16:50.069Z,98457.56
2023-01-29T23:19:17.819Z,98458.16
2023-01-29T23:21:44.805Z,98454.84
2023-01-29T23:24:12.027Z,98452.59
2023-01-29T23:26:57.700Z,98448.66
2023-01-29T23:29:24.631Z,98452.50
2023-01-29T23:31:51.617Z,98446.75
2023-01-29T23:34:20.998Z,98447.06
2023-01-29T23:36:48.084Z,98438.00
2023-01-29T23:39:14.988Z,98429.31
2023-01-29T23:41:41.911Z,98428.47
2023-01-29T23:44:08.963Z,98425.03
2023-01-29T23:46:35.923Z,98429.53
2023-01-29T23:49:02.915Z,98428.72
2023-01-29T23:51:29.976Z,98415.59
2023-01-29T23:53:56.952Z,98410.94
2023-01-29T23:56:24.101Z,98412.72
2023-01-29T23:58:55.096Z,98407.63
